sensor_id;sensor_type;location;lat;lon;timestamp;P1;durP1;ratioP1;P2;durP2;ratioP2
72517;SDS011;60540;51.178;6.738;2023-05-02T00:00:26;20.52;;;11.25;;
72517;SDS011;60540;51.178;6.738;2023-05-02T00:03:11;18.77;;;10.85;;
72517;SDS011;60540;51.178;6.738;2023-05-02T00:05:37;22.80;;;12.25;;
72517;SDS011;60540;51.178;6.738;2023-05-02T00:08:03;19.83;;;11.82;;
72517;SDS011;60540;51.178;6.738;2023-05-02T00:10:29;19.75;;;11.73;;
72517;SDS011;60540;51.178;6.738;2023-05-02T00:12:55;24.35;;;13.38;;
72517;SDS011;60540;51.178;6.738;2023-05-02T00:15:20;23.30;;;12.77;;
72517;SDS011;60540;51.178;6.738;2023-05-02T00:17:46;21.63;;;13.02;;
72517;SDS011;60540;51.178;6.738;2023-05-02T00:20:12;22.75;;;12.43;;
72517;SDS011;60540;51.178;6.738;2023-05-02T00:22:38;23.13;;;13.73;;
72517;SDS011;60540;51.178;6.738;2023-05-02T00:25:04;23.10;;;12.48;;
72517;SDS011;60540;51.178;6.738;2023-05-02T00:29:57;23.85;;;13.68;;
72517;SDS011;60540;51.178;6.738;2023-05-02T00:32:24;24.45;;;13.40;;
72517;SDS011;60540;51.178;6.738;2023-05-02T00:34:51;27.27;;;14.52;;
72517;SDS011;60540;51.178;6.738;2023-05-02T00:37:16;26.00;;;13.65;;
72517;SDS011;60540;51.178;6.738;2023-05-02T00:39:42;27.95;;;14.07;;
72517;SDS011;60540;51.178;6.738;2023-05-02T00:44:35;23.52;;;12.68;;
72517;SDS011;60540;51.178;6.738;2023-05-02T00:47:01;28.67;;;14.40;;
72517;SDS011;60540;51.178;6.738;2023-05-02T00:49:26;31.02;;;14.77;;
72517;SDS011;60540;51.178;6.738;2023-05-02T00:51:53;27.38;;;14.30;;
72517;SDS011;60540;51.178;6.738;2023-05-02T00:54:18;29.70;;;14.73;;
72517;SDS011;60540;51.178;6.738;2023-05-02T00:56:44;28.38;;;14.82;;
72517;SDS011;60540;51.178;6.738;2023-05-02T00:59:11;32.72;;;15.88;;
72517;SDS011;60540;51.178;6.738;2023-05-02T01:10:20;33.25;;;15.48;;
72517;SDS011;60540;51.178;6.738;2023-05-02T01:12:53;33.92;;;15.90;;
72517;SDS011;60540;51.178;6.738;2023-05-02T01:15:24;34.55;;;16.05;;
72517;SDS011;60540;51.178;6.738;2023-05-02T01:17:51;33.05;;;16.05;;
72517;SDS011;60540;51.178;6.738;2023-05-02T01:20:19;33.30;;;15.20;;
72517;SDS011;60540;51.178;6.738;2023-05-02T01:22:46;30.95;;;15.88;;
72517;SDS011;60540;51.178;6.738;2023-05-02T01:30:20;32.45;;;15.60;;
72517;SDS011;60540;51.178;6.738;2023-05-02T01:32:46;32.40;;;15.98;;
72517;SDS011;60540;51.178;6.738;2023-05-02T01:35:14;30.50;;;15.57;;
72517;SDS011;60540;51.178;6.738;2023-05-02T01:37:42;38.53;;;17.33;;
72517;SDS011;60540;51.178;6.738;2023-05-02T01:40:09;32.35;;;14.25;;
72517;SDS011;60540;51.178;6.738;2023-05-02T01:42:35;28.10;;;14.10;;
72517;SDS011;60540;51.178;6.738;2023-05-02T01:45:02;30.77;;;15.45;;
72517;SDS011;60540;51.178;6.738;2023-05-02T01:47:29;31.25;;;15.57;;
72517;SDS011;60540;51.178;6.738;2023-05-02T01:49:58;32.30;;;15.40;;
72517;SDS011;60540;51.178;6.738;2023-05-02T01:54:50;31.42;;;14.70;;
72517;SDS011;60540;51.178;6.738;2023-05-02T01:57:16;32.33;;;15.57;;
72517;SDS011;60540;51.178;6.738;2023-05-02T01:59:43;31.17;;;15.45;;
72517;SDS011;60540;51.178;6.738;2023-05-02T02:02:09;36.88;;;15.80;;
72517;SDS011;60540;51.178;6.738;2023-05-02T02:04:37;34.83;;;15.40;;
72517;SDS011;60540;51.178;6.738;2023-05-02T02:09:33;31.05;;;14.68;;
72517;SDS011;60540;51.178;6.738;2023-05-02T02:12:06;29.38;;;14.35;;
72517;SDS011;60540;51.178;6.738;2023-05-02T02:14:38;34.53;;;15.02;;
72517;SDS011;60540;51.178;6.738;2023-05-02T02:17:21;36.83;;;15.52;;
72517;SDS011;60540;51.178;6.738;2023-05-02T02:19:48;30.08;;;14.30;;
72517;SDS011;60540;51.178;6.738;2023-05-02T02:22:18;30.73;;;14.73;;
72517;SDS011;60540;51.178;6.738;2023-05-02T02:24:45;35.35;;;15.50;;
72517;SDS011;60540;51.178;6.738;2023-05-02T02:27:11;35.33;;;16.23;;
72517;SDS011;60540;51.178;6.738;2023-05-02T02:29:37;29.80;;;15.05;;
72517;SDS011;60540;51.178;6.738;2023-05-02T02:32:02;31.63;;;14.10;;
72517;SDS011;60540;51.178;6.738;2023-05-02T02:34:28;29.48;;;14.52;;
72517;SDS011;60540;51.178;6.738;2023-05-02T02:37:03;35.25;;;15.25;;
72517;SDS011;60540;51.178;6.738;2023-05-02T02:42:42;31.88;;;15.85;;
72517;SDS011;60540;51.178;6.738;2023-05-02T02:48:18;35.50;;;15.40;;
72517;SDS011;60540;51.178;6.738;2023-05-02T02:53:32;32.35;;;15.23;;
72517;SDS011;60540;51.178;6.738;2023-05-02T02:56:01;33.05;;;15.38;;
72517;SDS011;60540;51.178;6.738;2023-05-02T02:58:36;35.63;;;16.42;;
72517;SDS011;60540;51.178;6.738;2023-05-02T03:01:07;33.85;;;15.15;;
72517;SDS011;60540;51.178;6.738;2023-05-02T03:03:36;31.77;;;14.90;;
72517;SDS011;60540;51.178;6.738;2023-05-02T03:06:04;34.35;;;14.82;;
72517;SDS011;60540;51.178;6.738;2023-05-02T03:08:37;29.48;;;13.45;;
72517;SDS011;60540;51.178;6.738;2023-05-02T03:11:04;31.90;;;15.32;;
72517;SDS011;60540;51.178;6.738;2023-05-02T03:13:30;31.65;;;15.43;;
72517;SDS011;60540;51.178;6.738;2023-05-02T03:18:55;29.85;;;14.07;;
72517;SDS011;60540;51.178;6.738;2023-05-02T03:21:20;34.53;;;15.20;;
72517;SDS011;60540;51.178;6.738;2023-05-02T03:23:46;31.92;;;14.27;;
72517;SDS011;60540;51.178;6.738;2023-05-02T03:26:12;29.20;;;14.15;;
72517;SDS011;60540;51.178;6.738;2023-05-02T03:28:38;31.83;;;15.48;;
72517;SDS011;60540;51.178;6.738;2023-05-02T03:31:03;35.13;;;14.38;;
72517;SDS011;60540;51.178;6.738;2023-05-02T03:33:29;31.67;;;14.07;;
72517;SDS011;60540;51.178;6.738;2023-05-02T03:35:55;29.33;;;14.18;;
72517;SDS011;60540;51.178;6.738;2023-05-02T03:38:21;28.98;;;13.65;;
72517;SDS011;60540;51.178;6.738;2023-05-02T03:40:46;28.35;;;14.00;;
72517;SDS011;60540;51.178;6.738;2023-05-02T03:43:12;31.40;;;13.43;;
72517;SDS011;60540;51.178;6.738;2023-05-02T03:45:38;28.75;;;12.02;;
72517;SDS011;60540;51.178;6.738;2023-05-02T03:48:04;30.85;;;13.40;;
72517;SDS011;60540;51.178;6.738;2023-05-02T03:50:29;27.55;;;12.05;;
72517;SDS011;60540;51.178;6.738;2023-05-02T03:52:55;28.60;;;12.70;;
72517;SDS011;60540;51.178;6.738;2023-05-02T03:55:21;26.88;;;12.05;;
72517;SDS011;60540;51.178;6.738;2023-05-02T03:57:47;25.67;;;12.30;;
72517;SDS011;60540;51.178;6.738;2023-05-02T04:00:12;28.15;;;12.45;;
72517;SDS011;60540;51.178;6.738;2023-05-02T04:02:39;23.73;;;10.57;;
72517;SDS011;60540;51.178;6.738;2023-05-02T04:05:04;26.30;;;12.27;;
72517;SDS011;60540;51.178;6.738;2023-05-02T04:07:30;21.10;;;10.88;;
72517;SDS011;60540;51.178;6.738;2023-05-02T04:09:56;24.75;;;11.15;;
72517;SDS011;60540;51.178;6.738;2023-05-02T04:12:22;26.45;;;11.40;;
72517;SDS011;60540;51.178;6.738;2023-05-02T04:14:47;22.15;;;10.50;;
72517;SDS011;60540;51.178;6.738;2023-05-02T04:17:13;27.38;;;11.88;;
72517;SDS011;60540;51.178;6.738;2023-05-02T04:19:42;24.20;;;10.05;;
72517;SDS011;60540;51.178;6.738;2023-05-02T04:22:08;22.85;;;10.82;;
72517;SDS011;60540;51.178;6.738;2023-05-02T04:24:33;22.33;;;10.32;;
72517;SDS011;60540;51.178;6.738;2023-05-02T04:26:59;22.10;;;9.15;;
72517;SDS011;60540;51.178;6.738;2023-05-02T04:29:25;25.63;;;10.85;;
72517;SDS011;60540;51.178;6.738;2023-05-02T04:31:51;21.85;;;9.63;;
72517;SDS011;60540;51.178;6.738;2023-05-02T04:34:17;23.35;;;9.65;;
72517;SDS011;60540;51.178;6.738;2023-05-02T04:36:44;24.33;;;9.85;;
72517;SDS011;60540;51.178;6.738;2023-05-02T04:39:10;25.15;;;10.30;;
72517;SDS011;60540;51.178;6.738;2023-05-02T04:41:35;20.55;;;9.60;;
72517;SDS011;60540;51.178;6.738;2023-05-02T04:44:01;23.85;;;10.55;;
72517;SDS011;60540;51.178;6.738;2023-05-02T04:46:27;26.88;;;10.85;;
72517;SDS011;60540;51.178;6.738;2023-05-02T04:48:53;23.40;;;10.57;;
72517;SDS011;60540;51.178;6.738;2023-05-02T04:51:19;25.13;;;9.35;;
72517;SDS011;60540;51.178;6.738;2023-05-02T04:53:44;22.35;;;9.20;;
72517;SDS011;60540;51.178;6.738;2023-05-02T04:56:10;23.95;;;10.00;;
72517;SDS011;60540;51.178;6.738;2023-05-02T04:58:37;19.30;;;9.20;;
72517;SDS011;60540;51.178;6.738;2023-05-02T05:01:03;21.50;;;9.65;;
72517;SDS011;60540;51.178;6.738;2023-05-02T05:03:28;23.13;;;10.13;;
72517;SDS011;60540;51.178;6.738;2023-05-02T05:05:55;20.83;;;9.40;;
72517;SDS011;60540;51.178;6.738;2023-05-02T05:08:21;21.88;;;9.02;;
72517;SDS011;60540;51.178;6.738;2023-05-02T05:10:47;24.48;;;10.18;;
72517;SDS011;60540;51.178;6.738;2023-05-02T05:13:12;20.75;;;9.55;;
72517;SDS011;60540;51.178;6.738;2023-05-02T05:15:38;24.30;;;10.15;;
72517;SDS011;60540;51.178;6.738;2023-05-02T05:18:04;25.17;;;9.90;;
72517;SDS011;60540;51.178;6.738;2023-05-02T05:20:31;24.35;;;10.98;;
72517;SDS011;60540;51.178;6.738;2023-05-02T05:22:58;24.10;;;10.05;;
72517;SDS011;60540;51.178;6.738;2023-05-02T05:25:27;24.15;;;10.55;;
72517;SDS011;60540;51.178;6.738;2023-05-02T05:27:53;22.80;;;9.93;;
72517;SDS011;60540;51.178;6.738;2023-05-02T05:30:20;21.40;;;9.82;;
72517;SDS011;60540;51.178;6.738;2023-05-02T05:32:46;24.98;;;11.15;;
72517;SDS011;60540;51.178;6.738;2023-05-02T05:35:12;20.65;;;10.70;;
72517;SDS011;60540;51.178;6.738;2023-05-02T05:37:37;23.08;;;11.05;;
72517;SDS011;60540;51.178;6.738;2023-05-02T05:40:07;26.17;;;11.52;;
72517;SDS011;60540;51.178;6.738;2023-05-02T05:42:33;25.42;;;10.35;;
72517;SDS011;60540;51.178;6.738;2023-05-02T05:44:59;26.30;;;11.25;;
72517;SDS011;60540;51.178;6.738;2023-05-02T05:47:25;25.83;;;11.52;;
72517;SDS011;60540;51.178;6.738;2023-05-02T05:49:54;24.25;;;11.52;;
72517;SDS011;60540;51.178;6.738;2023-05-02T05:52:20;22.92;;;8.80;;
72517;SDS011;60540;51.178;6.738;2023-05-02T05:54:46;21.27;;;9.70;;
72517;SDS011;60540;51.178;6.738;2023-05-02T05:57:12;21.13;;;9.57;;
72517;SDS011;60540;51.178;6.738;2023-05-02T05:59:38;22.45;;;10.35;;
72517;SDS011;60540;51.178;6.738;2023-05-02T06:02:04;20.75;;;10.32;;
72517;SDS011;60540;51.178;6.738;2023-05-02T06:04:30;22.63;;;9.52;;
72517;SDS011;60540;51.178;6.738;2023-05-02T06:06:56;17.70;;;8.23;;
72517;SDS011;60540;51.178;6.738;2023-05-02T06:09:21;16.90;;;8.93;;
72517;SDS011;60540;51.178;6.738;2023-05-02T06:11:47;13.48;;;6.68;;
72517;SDS011;60540;51.178;6.738;2023-05-02T06:14:13;11.68;;;6.00;;
72517;SDS011;60540;51.178;6.738;2023-05-02T06:16:39;12.93;;;6.15;;
72517;SDS011;60540;51.178;6.738;2023-05-02T06:19:04;10.50;;;5.10;;
72517;SDS011;60540;51.178;6.738;2023-05-02T06:21:30;9.57;;;4.13;;
72517;SDS011;60540;51.178;6.738;2023-05-02T06:23:56;10.93;;;4.43;;
72517;SDS011;60540;51.178;6.738;2023-05-02T06:26:22;9.40;;;4.20;;
72517;SDS011;60540;51.178;6.738;2023-05-02T06:28:48;10.18;;;4.30;;
72517;SDS011;60540;51.178;6.738;2023-05-02T06:31:13;8.55;;;4.15;;
72517;SDS011;60540;51.178;6.738;2023-05-02T06:33:40;8.52;;;3.83;;
72517;SDS011;60540;51.178;6.738;2023-05-02T06:36:07;7.60;;;3.42;;
72517;SDS011;60540;51.178;6.738;2023-05-02T06:38:33;9.15;;;3.63;;
72517;SDS011;60540;51.178;6.738;2023-05-02T06:40:58;10.25;;;3.75;;
72517;SDS011;60540;51.178;6.738;2023-05-02T06:43:24;7.15;;;3.80;;
72517;SDS011;60540;51.178;6.738;2023-05-02T06:45:53;9.52;;;4.28;;
72517;SDS011;60540;51.178;6.738;2023-05-02T06:48:21;8.85;;;4.50;;
72517;SDS011;60540;51.178;6.738;2023-05-02T06:50:47;7.05;;;3.50;;
72517;SDS011;60540;51.178;6.738;2023-05-02T06:53:13;7.90;;;3.10;;
72517;SDS011;60540;51.178;6.738;2023-05-02T06:55:39;7.35;;;4.10;;
72517;SDS011;60540;51.178;6.738;2023-05-02T06:58:05;7.07;;;3.60;;
72517;SDS011;60540;51.178;6.738;2023-05-02T07:00:30;9.55;;;3.50;;
72517;SDS011;60540;51.178;6.738;2023-05-02T07:02:56;7.20;;;2.80;;
72517;SDS011;60540;51.178;6.738;2023-05-02T07:05:22;12.05;;;3.65;;
72517;SDS011;60540;51.178;6.738;2023-05-02T07:07:49;9.73;;;3.75;;
72517;SDS011;60540;51.178;6.738;2023-05-02T07:10:14;6.28;;;2.70;;
72517;SDS011;60540;51.178;6.738;2023-05-02T07:12:40;6.70;;;2.90;;
72517;SDS011;60540;51.178;6.738;2023-05-02T07:15:06;11.35;;;2.88;;
72517;SDS011;60540;51.178;6.738;2023-05-02T07:17:33;6.25;;;2.75;;
72517;SDS011;60540;51.178;6.738;2023-05-02T07:19:58;7.20;;;2.47;;
72517;SDS011;60540;51.178;6.738;2023-05-02T07:22:24;5.10;;;2.67;;
72517;SDS011;60540;51.178;6.738;2023-05-02T07:24:56;6.13;;;2.33;;
72517;SDS011;60540;51.178;6.738;2023-05-02T07:27:23;7.30;;;2.45;;
72517;SDS011;60540;51.178;6.738;2023-05-02T07:29:48;4.93;;;2.28;;
72517;SDS011;60540;51.178;6.738;2023-05-02T07:32:14;5.03;;;2.17;;
72517;SDS011;60540;51.178;6.738;2023-05-02T07:34:40;8.75;;;2.33;;
72517;SDS011;60540;51.178;6.738;2023-05-02T07:37:06;6.95;;;2.10;;
72517;SDS011;60540;51.178;6.738;2023-05-02T07:39:31;7.07;;;2.55;;
72517;SDS011;60540;51.178;6.738;2023-05-02T07:41:57;10.30;;;2.78;;
72517;SDS011;60540;51.178;6.738;2023-05-02T07:44:23;5.13;;;2.30;;
72517;SDS011;60540;51.178;6.738;2023-05-02T07:46:49;6.68;;;2.70;;
72517;SDS011;60540;51.178;6.738;2023-05-02T07:49:15;8.35;;;3.25;;
72517;SDS011;60540;51.178;6.738;2023-05-02T07:51:41;5.25;;;2.55;;
72517;SDS011;60540;51.178;6.738;2023-05-02T07:54:15;4.72;;;2.60;;
72517;SDS011;60540;51.178;6.738;2023-05-02T07:59:07;4.88;;;2.35;;
72517;SDS011;60540;51.178;6.738;2023-05-02T08:01:34;10.60;;;2.70;;
72517;SDS011;60540;51.178;6.738;2023-05-02T08:04:00;6.30;;;2.45;;
72517;SDS011;60540;51.178;6.738;2023-05-02T08:06:26;5.13;;;2.53;;
72517;SDS011;60540;51.178;6.738;2023-05-02T08:08:53;7.97;;;2.85;;
72517;SDS011;60540;51.178;6.738;2023-05-02T08:11:19;4.40;;;1.83;;
72517;SDS011;60540;51.178;6.738;2023-05-02T08:13:46;7.28;;;2.15;;
72517;SDS011;60540;51.178;6.738;2023-05-02T08:16:12;5.53;;;2.10;;
72517;SDS011;60540;51.178;6.738;2023-05-02T08:18:38;5.38;;;2.08;;
72517;SDS011;60540;51.178;6.738;2023-05-02T08:21:05;5.60;;;2.25;;
72517;SDS011;60540;51.178;6.738;2023-05-02T08:23:31;6.38;;;2.00;;
72517;SDS011;60540;51.178;6.738;2023-05-02T08:25:57;5.15;;;2.13;;
72517;SDS011;60540;51.178;6.738;2023-05-02T08:28:22;3.47;;;1.67;;
72517;SDS011;60540;51.178;6.738;2023-05-02T08:30:48;6.55;;;1.90;;
72517;SDS011;60540;51.178;6.738;2023-05-02T08:33:14;4.30;;;1.90;;
72517;SDS011;60540;51.178;6.738;2023-05-02T08:35:40;5.32;;;2.53;;
72517;SDS011;60540;51.178;6.738;2023-05-02T08:38:05;4.32;;;1.85;;
72517;SDS011;60540;51.178;6.738;2023-05-02T08:40:34;5.03;;;2.30;;
72517;SDS011;60540;51.178;6.738;2023-05-02T08:43:00;6.78;;;2.78;;
72517;SDS011;60540;51.178;6.738;2023-05-02T08:45:27;5.93;;;2.00;;
72517;SDS011;60540;51.178;6.738;2023-05-02T08:47:56;6.50;;;2.20;;
72517;SDS011;60540;51.178;6.738;2023-05-02T08:50:23;5.68;;;2.45;;
72517;SDS011;60540;51.178;6.738;2023-05-02T08:52:48;7.70;;;2.38;;
72517;SDS011;60540;51.178;6.738;2023-05-02T08:55:16;6.03;;;2.50;;
72517;SDS011;60540;51.178;6.738;2023-05-02T08:57:42;7.10;;;2.63;;
72517;SDS011;60540;51.178;6.738;2023-05-02T09:00:08;6.03;;;2.00;;
72517;SDS011;60540;51.178;6.738;2023-05-02T09:02:56;6.22;;;2.58;;
72517;SDS011;60540;51.178;6.738;2023-05-02T09:08:09;7.60;;;2.33;;
72517;SDS011;60540;51.178;6.738;2023-05-02T09:10:34;7.75;;;2.60;;
72517;SDS011;60540;51.178;6.738;2023-05-02T09:13:26;5.03;;;2.40;;
72517;SDS011;60540;51.178;6.738;2023-05-02T09:16:11;6.43;;;2.13;;
72517;SDS011;60540;51.178;6.738;2023-05-02T09:18:42;4.60;;;1.88;;
72517;SDS011;60540;51.178;6.738;2023-05-02T09:21:11;4.32;;;3.00;;
72517;SDS011;60540;51.178;6.738;2023-05-02T09:23:43;6.07;;;2.55;;
72517;SDS011;60540;51.178;6.738;2023-05-02T09:26:15;7.72;;;2.40;;
72517;SDS011;60540;51.178;6.738;2023-05-02T09:28:48;5.45;;;2.13;;
72517;SDS011;60540;51.178;6.738;2023-05-02T09:31:15;6.82;;;3.15;;
72517;SDS011;60540;51.178;6.738;2023-05-02T09:33:45;5.57;;;2.20;;
72517;SDS011;60540;51.178;6.738;2023-05-02T09:36:12;6.43;;;2.78;;
72517;SDS011;60540;51.178;6.738;2023-05-02T09:38:40;8.95;;;2.67;;
72517;SDS011;60540;51.178;6.738;2023-05-02T09:41:10;9.07;;;3.88;;
72517;SDS011;60540;51.178;6.738;2023-05-02T09:43:36;6.22;;;3.45;;
72517;SDS011;60540;51.178;6.738;2023-05-02T09:46:06;10.52;;;3.80;;
72517;SDS011;60540;51.178;6.738;2023-05-02T09:48:50;6.20;;;3.33;;
72517;SDS011;60540;51.178;6.738;2023-05-02T09:51:16;7.18;;;2.97;;
72517;SDS011;60540;51.178;6.738;2023-05-02T09:53:43;6.78;;;3.63;;
72517;SDS011;60540;51.178;6.738;2023-05-02T09:56:09;8.32;;;3.88;;
72517;SDS011;60540;51.178;6.738;2023-05-02T09:58:35;7.93;;;3.80;;
72517;SDS011;60540;51.178;6.738;2023-05-02T10:01:01;8.20;;;3.38;;
72517;SDS011;60540;51.178;6.738;2023-05-02T10:03:27;9.13;;;3.40;;
72517;SDS011;60540;51.178;6.738;2023-05-02T10:05:54;7.75;;;3.00;;
72517;SDS011;60540;51.178;6.738;2023-05-02T10:08:21;5.35;;;2.80;;
72517;SDS011;60540;51.178;6.738;2023-05-02T10:10:49;6.30;;;3.17;;
72517;SDS011;60540;51.178;6.738;2023-05-02T10:13:20;9.63;;;3.10;;
72517;SDS011;60540;51.178;6.738;2023-05-02T10:15:49;7.00;;;2.75;;
72517;SDS011;60540;51.178;6.738;2023-05-02T10:18:32;6.72;;;3.17;;
72517;SDS011;60540;51.178;6.738;2023-05-02T10:21:04;9.85;;;3.03;;
72517;SDS011;60540;51.178;6.738;2023-05-02T10:23:32;6.00;;;2.90;;
72517;SDS011;60540;51.178;6.738;2023-05-02T10:25:59;7.43;;;3.03;;
72517;SDS011;60540;51.178;6.738;2023-05-02T10:28:25;5.68;;;2.92;;
72517;SDS011;60540;51.178;6.738;2023-05-02T10:30:51;5.82;;;2.22;;
72517;SDS011;60540;51.178;6.738;2023-05-02T10:33:17;5.75;;;2.22;;
72517;SDS011;60540;51.178;6.738;2023-05-02T10:35:45;4.32;;;1.85;;
72517;SDS011;60540;51.178;6.738;2023-05-02T10:38:15;8.80;;;3.17;;
72517;SDS011;60540;51.178;6.738;2023-05-02T10:40:57;5.43;;;2.00;;
72517;SDS011;60540;51.178;6.738;2023-05-02T10:43:31;5.85;;;2.47;;
72517;SDS011;60540;51.178;6.738;2023-05-02T10:45:59;5.18;;;2.10;;
72517;SDS011;60540;51.178;6.738;2023-05-02T10:48:26;5.47;;;1.73;;
72517;SDS011;60540;51.178;6.738;2023-05-02T10:50:56;4.97;;;1.92;;
72517;SDS011;60540;51.178;6.738;2023-05-02T10:58:53;5.43;;;2.00;;
72517;SDS011;60540;51.178;6.738;2023-05-02T11:01:51;6.15;;;2.45;;
72517;SDS011;60540;51.178;6.738;2023-05-02T11:04:16;4.07;;;2.00;;
72517;SDS011;60540;51.178;6.738;2023-05-02T11:11:50;5.85;;;2.10;;
72517;SDS011;60540;51.178;6.738;2023-05-02T11:19:24;6.13;;;2.10;;
72517;SDS011;60540;51.178;6.738;2023-05-02T11:21:50;4.65;;;1.73;;
72517;SDS011;60540;51.178;6.738;2023-05-02T11:24:40;4.20;;;1.77;;
72517;SDS011;60540;51.178;6.738;2023-05-02T11:30:06;6.07;;;2.08;;
72517;SDS011;60540;51.178;6.738;2023-05-02T11:37:40;5.38;;;1.77;;
72517;SDS011;60540;51.178;6.738;2023-05-02T11:40:12;6.45;;;2.30;;
72517;SDS011;60540;51.178;6.738;2023-05-02T11:42:40;6.40;;;2.15;;
72517;SDS011;60540;51.178;6.738;2023-05-02T11:45:05;4.90;;;2.63;;
72517;SDS011;60540;51.178;6.738;2023-05-02T11:47:31;7.50;;;2.92;;
72517;SDS011;60540;51.178;6.738;2023-05-02T11:49:57;7.45;;;2.53;;
72517;SDS011;60540;51.178;6.738;2023-05-02T11:52:26;6.22;;;2.30;;
72517;SDS011;60540;51.178;6.738;2023-05-02T11:54:55;5.47;;;2.22;;
72517;SDS011;60540;51.178;6.738;2023-05-02T11:57:21;6.60;;;2.45;;
72517;SDS011;60540;51.178;6.738;2023-05-02T11:59:54;7.22;;;2.17;;
72517;SDS011;60540;51.178;6.738;2023-05-02T12:05:07;6.07;;;2.40;;
72517;SDS011;60540;51.178;6.738;2023-05-02T12:10:03;6.80;;;2.20;;
72517;SDS011;60540;51.178;6.738;2023-05-02T12:12:30;9.57;;;3.38;;
72517;SDS011;60540;51.178;6.738;2023-05-02T12:14:56;7.65;;;2.78;;
72517;SDS011;60540;51.178;6.738;2023-05-02T12:17:22;7.28;;;2.58;;
72517;SDS011;60540;51.178;6.738;2023-05-02T12:19:49;8.20;;;2.47;;
72517;SDS011;60540;51.178;6.738;2023-05-02T12:22:15;6.97;;;2.63;;
72517;SDS011;60540;51.178;6.738;2023-05-02T12:24:40;6.60;;;3.00;;
72517;SDS011;60540;51.178;6.738;2023-05-02T12:27:14;4.88;;;2.47;;
72517;SDS011;60540;51.178;6.738;2023-05-02T12:29:42;5.82;;;2.67;;
72517;SDS011;60540;51.178;6.738;2023-05-02T12:32:09;6.63;;;2.35;;
72517;SDS011;60540;51.178;6.738;2023-05-02T12:34:36;4.95;;;1.92;;
72517;SDS011;60540;51.178;6.738;2023-05-02T12:37:27;4.60;;;1.83;;
72517;SDS011;60540;51.178;6.738;2023-05-02T12:39:53;7.57;;;2.17;;
72517;SDS011;60540;51.178;6.738;2023-05-02T12:42:20;5.53;;;2.47;;
72517;SDS011;60540;51.178;6.738;2023-05-02T12:44:48;5.55;;;2.20;;
72517;SDS011;60540;51.178;6.738;2023-05-02T12:47:16;5.88;;;2.30;;
72517;SDS011;60540;51.178;6.738;2023-05-02T12:50:01;6.28;;;2.38;;
72517;SDS011;60540;51.178;6.738;2023-05-02T12:55:16;8.25;;;2.38;;
72517;SDS011;60540;51.178;6.738;2023-05-02T12:57:42;5.90;;;1.98;;
72517;SDS011;60540;51.178;6.738;2023-05-02T13:00:08;7.75;;;2.20;;
72517;SDS011;60540;51.178;6.738;2023-05-02T13:02:34;5.65;;;1.92;;
72517;SDS011;60540;51.178;6.738;2023-05-02T13:05:00;4.68;;;1.77;;
72517;SDS011;60540;51.178;6.738;2023-05-02T13:07:26;7.40;;;2.25;;
72517;SDS011;60540;51.178;6.738;2023-05-02T13:09:51;6.95;;;1.90;;
72517;SDS011;60540;51.178;6.738;2023-05-02T13:12:20;3.88;;;1.88;;
72517;SDS011;60540;51.178;6.738;2023-05-02T13:14:46;4.95;;;1.90;;
72517;SDS011;60540;51.178;6.738;2023-05-02T13:17:12;6.13;;;2.25;;
72517;SDS011;60540;51.178;6.738;2023-05-02T13:19:37;6.38;;;1.90;;
72517;SDS011;60540;51.178;6.738;2023-05-02T13:22:03;4.95;;;1.65;;
72517;SDS011;60540;51.178;6.738;2023-05-02T13:24:29;5.45;;;2.50;;
72517;SDS011;60540;51.178;6.738;2023-05-02T13:26:55;4.78;;;1.67;;
72517;SDS011;60540;51.178;6.738;2023-05-02T13:29:20;3.58;;;1.63;;
72517;SDS011;60540;51.178;6.738;2023-05-02T13:31:47;5.22;;;1.73;;
72517;SDS011;60540;51.178;6.738;2023-05-02T13:34:12;5.65;;;1.83;;
72517;SDS011;60540;51.178;6.738;2023-05-02T13:36:38;6.70;;;2.33;;
72517;SDS011;60540;51.178;6.738;2023-05-02T13:39:10;6.75;;;1.83;;
72517;SDS011;60540;51.178;6.738;2023-05-02T13:41:37;6.68;;;1.90;;
72517;SDS011;60540;51.178;6.738;2023-05-02T13:44:02;6.30;;;1.95;;
72517;SDS011;60540;51.178;6.738;2023-05-02T13:46:28;4.28;;;2.03;;
72517;SDS011;60540;51.178;6.738;2023-05-02T13:49:00;5.32;;;1.98;;
72517;SDS011;60540;51.178;6.738;2023-05-02T13:51:28;5.78;;;1.80;;
72517;SDS011;60540;51.178;6.738;2023-05-02T13:53:56;4.75;;;1.98;;
72517;SDS011;60540;51.178;6.738;2023-05-02T13:56:22;4.25;;;1.63;;
72517;SDS011;60540;51.178;6.738;2023-05-02T13:58:47;4.00;;;1.80;;
72517;SDS011;60540;51.178;6.738;2023-05-02T14:01:13;5.13;;;1.88;;
72517;SDS011;60540;51.178;6.738;2023-05-02T14:03:39;3.10;;;1.83;;
72517;SDS011;60540;51.178;6.738;2023-05-02T14:06:05;5.65;;;1.83;;
72517;SDS011;60540;51.178;6.738;2023-05-02T14:08:30;4.50;;;1.95;;
72517;SDS011;60540;51.178;6.738;2023-05-02T14:10:56;6.00;;;1.83;;
72517;SDS011;60540;51.178;6.738;2023-05-02T14:13:22;6.15;;;1.90;;
72517;SDS011;60540;51.178;6.738;2023-05-02T14:15:49;4.15;;;1.83;;
72517;SDS011;60540;51.178;6.738;2023-05-02T14:18:15;4.10;;;2.13;;
72517;SDS011;60540;51.178;6.738;2023-05-02T14:20:41;5.00;;;1.95;;
72517;SDS011;60540;51.178;6.738;2023-05-02T14:23:07;3.78;;;2.10;;
72517;SDS011;60540;51.178;6.738;2023-05-02T14:25:36;6.18;;;2.88;;
72517;SDS011;60540;51.178;6.738;2023-05-02T14:28:02;5.43;;;2.22;;
72517;SDS011;60540;51.178;6.738;2023-05-02T14:30:29;4.53;;;2.30;;
72517;SDS011;60540;51.178;6.738;2023-05-02T14:32:55;4.22;;;2.25;;
72517;SDS011;60540;51.178;6.738;2023-05-02T14:35:21;6.82;;;2.00;;
72517;SDS011;60540;51.178;6.738;2023-05-02T14:37:47;5.45;;;2.47;;
72517;SDS011;60540;51.178;6.738;2023-05-02T14:40:13;7.20;;;2.13;;
72517;SDS011;60540;51.178;6.738;2023-05-02T14:42:39;6.35;;;2.38;;
72517;SDS011;60540;51.178;6.738;2023-05-02T14:45:06;6.90;;;2.88;;
72517;SDS011;60540;51.178;6.738;2023-05-02T14:47:32;4.68;;;2.25;;
72517;SDS011;60540;51.178;6.738;2023-05-02T14:52:25;3.92;;;2.20;;
72517;SDS011;60540;51.178;6.738;2023-05-02T14:57:17;4.88;;;1.90;;
72517;SDS011;60540;51.178;6.738;2023-05-02T14:59:43;5.00;;;2.20;;
72517;SDS011;60540;51.178;6.738;2023-05-02T15:02:09;4.63;;;2.35;;
72517;SDS011;60540;51.178;6.738;2023-05-02T15:04:35;6.50;;;2.47;;
72517;SDS011;60540;51.178;6.738;2023-05-02T15:07:01;5.28;;;2.45;;
72517;SDS011;60540;51.178;6.738;2023-05-02T15:09:30;5.78;;;2.45;;
72517;SDS011;60540;51.178;6.738;2023-05-02T15:11:56;5.90;;;2.30;;
72517;SDS011;60540;51.178;6.738;2023-05-02T15:14:22;4.55;;;2.53;;
72517;SDS011;60540;51.178;6.738;2023-05-02T15:16:47;6.40;;;2.30;;
72517;SDS011;60540;51.178;6.738;2023-05-02T15:19:13;7.32;;;2.55;;
72517;SDS011;60540;51.178;6.738;2023-05-02T15:21:39;5.38;;;2.60;;
72517;SDS011;60540;51.178;6.738;2023-05-02T15:24:05;6.15;;;2.80;;
72517;SDS011;60540;51.178;6.738;2023-05-02T15:26:31;5.18;;;2.53;;
72517;SDS011;60540;51.178;6.738;2023-05-02T15:28:57;5.25;;;2.60;;
72517;SDS011;60540;51.178;6.738;2023-05-02T15:31:23;5.18;;;2.55;;
72517;SDS011;60540;51.178;6.738;2023-05-02T15:33:49;4.22;;;2.20;;
72517;SDS011;60540;51.178;6.738;2023-05-02T15:36:15;4.75;;;2.47;;
72517;SDS011;60540;51.178;6.738;2023-05-02T15:38:42;5.10;;;2.40;;
72517;SDS011;60540;51.178;6.738;2023-05-02T15:41:09;6.93;;;2.80;;
72517;SDS011;60540;51.178;6.738;2023-05-02T15:43:35;5.63;;;2.60;;
72517;SDS011;60540;51.178;6.738;2023-05-02T15:46:02;4.72;;;2.15;;
72517;SDS011;60540;51.178;6.738;2023-05-02T15:48:28;7.03;;;2.30;;
72517;SDS011;60540;51.178;6.738;2023-05-02T15:50:54;7.32;;;2.38;;
72517;SDS011;60540;51.178;6.738;2023-05-02T15:53:21;4.45;;;2.50;;
72517;SDS011;60540;51.178;6.738;2023-05-02T15:55:47;5.00;;;2.40;;